sensor_id;sensor_type;location;lat;lon;timestamp;pressure;altitude;pressure_sealevel;temperature;humidity
17209;BME280;8720;48.488;9.202;2022-10-31T00:01:23;97496.47;;;16.75;50.07
17209;BME280;8720;48.488;9.202;2022-10-31T00:03:51;97496.50;;;16.74;50.16
17209;BME280;8720;48.488;9.202;2022-10-31T00:06:19;97494.78;;;16.73;50.19
17209;BME280;8720;48.488;9.202;2022-10-31T00:08:46;97492.22;;;16.71;49.94
17209;BME280;8720;48.488;9.202;2022-10-31T00:11:15;97491.34;;;16.71;49.98
17209;BME280;8720;48.488;9.202;2022-10-31T00:13:42;97495.75;;;16.70;49.95
17209;BME280;8720;48.488;9.202;2022-10-31T00:16:17;97495.91;;;16.67;50.06
17209;BME280;8720;48.488;9.202;2022-10-31T00:18:48;97504.69;;;16.68;50.37
17209;BME280;8720;48.488;9.202;2022-10-31T00:21:16;97501.25;;;16.66;50.38
17209;BME280;8720;48.488;9.202;2022-10-31T00:23:43;97501.34;;;16.63;50.24
17209;BME280;8720;48.488;9.202;2022-10-31T00:26:11;97497.00;;;16.62;50.22
17209;BME280;8720;48.488;9.202;2022-10-31T00:28:39;97502.47;;;16.57;50.21
17209;BME280;8720;48.488;9.202;2022-10-31T00:31:10;97500.81;;;16.55;50.68
17209;BME280;8720;48.488;9.202;2022-10-31T00:33:40;97504.44;;;16.52;50.80
17209;BME280;8720;48.488;9.202;2022-10-31T00:36:12;97507.22;;;16.48;50.83
17209;BME280;8720;48.488;9.202;2022-10-31T00:38:40;97509.13;;;16.44;51.05
17209;BME280;8720;48.488;9.202;2022-10-31T00:41:08;97507.47;;;16.42;51.09
17209;BME280;8720;48.488;9.202;2022-10-31T00:43:35;97512.88;;;16.38;51.11
17209;BME280;8720;48.488;9.202;2022-10-31T00:46:04;97502.47;;;16.34;51.11
17209;BME280;8720;48.488;9.202;2022-10-31T00:48:31;97503.44;;;16.31;51.25
17209;BME280;8720;48.488;9.202;2022-10-31T00:50:58;97500.94;;;16.28;51.11
17209;BME280;8720;48.488;9.202;2022-10-31T00:53:26;97488.16;;;16.18;51.29
17209;BME280;8720;48.488;9.202;2022-10-31T00:55:54;97497.06;;;16.15;51.32
17209;BME280;8720;48.488;9.202;2022-10-31T00:58:22;97492.81;;;16.11;51.49
17209;BME280;8720;48.488;9.202;2022-10-31T01:00:50;97500.81;;;16.10;51.61
17209;BME280;8720;48.488;9.202;2022-10-31T01:03:22;97497.38;;;16.06;51.65
17209;BME280;8720;48.488;9.202;2022-10-31T01:05:59;97492.25;;;16.03;51.80
17209;BME280;8720;48.488;9.202;2022-10-31T01:08:27;97488.88;;;16.00;51.70
17209;BME280;8720;48.488;9.202;2022-10-31T01:11:00;97488.94;;;15.98;51.78
17209;BME280;8720;48.488;9.202;2022-10-31T01:13:28;97490.06;;;15.91;51.94
17209;BME280;8720;48.488;9.202;2022-10-31T01:15:57;97492.63;;;15.93;51.94
17209;BME280;8720;48.488;9.202;2022-10-31T01:18:27;97486.59;;;15.91;52.09
17209;BME280;8720;48.488;9.202;2022-10-31T01:21:00;97489.25;;;15.89;52.07
17209;BME280;8720;48.488;9.202;2022-10-31T01:23:28;97490.28;;;15.85;52.32
17209;BME280;8720;48.488;9.202;2022-10-31T01:26:08;97487.72;;;15.84;52.17
17209;BME280;8720;48.488;9.202;2022-10-31T01:28:38;97487.84;;;15.81;52.14
17209;BME280;8720;48.488;9.202;2022-10-31T01:31:08;97481.75;;;15.79;52.42
17209;BME280;8720;48.488;9.202;2022-10-31T01:33:37;97488.88;;;15.77;52.61
17209;BME280;8720;48.488;9.202;2022-10-31T01:36:15;97485.41;;;15.75;52.52
17209;BME280;8720;48.488;9.202;2022-10-31T01:38:42;97485.50;;;15.72;52.42
17209;BME280;8720;48.488;9.202;2022-10-31T01:41:11;97491.66;;;15.72;52.50
17209;BME280;8720;48.488;9.202;2022-10-31T01:43:45;97489.09;;;15.71;52.60
17209;BME280;8720;48.488;9.202;2022-10-31T01:46:15;97483.88;;;15.69;52.65
17209;BME280;8720;48.488;9.202;2022-10-31T01:48:46;97490.06;;;15.68;52.59
17209;BME280;8720;48.488;9.202;2022-10-31T01:51:17;97484.91;;;15.65;52.64
17209;BME280;8720;48.488;9.202;2022-10-31T01:53:50;97495.50;;;15.64;52.53
17209;BME280;8720;48.488;9.202;2022-10-31T01:56:18;97488.56;;;15.61;52.60
17209;BME280;8720;48.488;9.202;2022-10-31T01:58:46;97486.03;;;15.58;52.96
17209;BME280;8720;48.488;9.202;2022-10-31T02:01:17;97488.78;;;15.55;52.65
17209;BME280;8720;48.488;9.202;2022-10-31T02:03:47;97481.88;;;15.51;52.86
17209;BME280;8720;48.488;9.202;2022-10-31T02:06:26;97481.16;;;15.48;53.13
17209;BME280;8720;48.488;9.202;2022-10-31T02:08:59;97483.84;;;15.46;52.94
17209;BME280;8720;48.488;9.202;2022-10-31T02:11:28;97480.34;;;15.45;53.17
17209;BME280;8720;48.488;9.202;2022-10-31T02:13:58;97479.47;;;15.45;52.97
17209;BME280;8720;48.488;9.202;2022-10-31T02:16:26;97476.00;;;15.44;53.24
17209;BME280;8720;48.488;9.202;2022-10-31T02:18:55;97474.31;;;15.42;53.28
17209;BME280;8720;48.488;9.202;2022-10-31T02:21:29;97476.19;;;15.38;53.42
17209;BME280;8720;48.488;9.202;2022-10-31T02:24:40;97472.88;;;15.32;53.42
17209;BME280;8720;48.488;9.202;2022-10-31T02:27:38;97468.84;;;15.22;53.05
17209;BME280;8720;48.488;9.202;2022-10-31T02:30:16;97479.19;;;15.28;54.05
17209;BME280;8720;48.488;9.202;2022-10-31T02:33:04;97473.91;;;15.28;53.62
17209;BME280;8720;48.488;9.202;2022-10-31T02:35:44;97473.91;;;15.28;53.43
17209;BME280;8720;48.488;9.202;2022-10-31T02:38:27;97472.13;;;15.28;53.36
17209;BME280;8720;48.488;9.202;2022-10-31T02:41:06;97475.66;;;15.27;53.38
17209;BME280;8720;48.488;9.202;2022-10-31T02:43:52;97479.13;;;15.29;53.42
17209;BME280;8720;48.488;9.202;2022-10-31T02:46:28;97470.38;;;15.29;53.45
17209;BME280;8720;48.488;9.202;2022-10-31T02:49:10;97476.47;;;15.29;53.80
17209;BME280;8720;48.488;9.202;2022-10-31T02:51:39;97467.75;;;15.29;53.88
17209;BME280;8720;48.488;9.202;2022-10-31T02:54:19;97470.31;;;15.30;53.75
17209;BME280;8720;48.488;9.202;2022-10-31T02:56:53;97461.69;;;15.25;53.96
17209;BME280;8720;48.488;9.202;2022-10-31T02:59:23;97465.94;;;15.29;54.01
17209;BME280;8720;48.488;9.202;2022-10-31T03:05:05;97471.22;;;15.29;53.88
17209;BME280;8720;48.488;9.202;2022-10-31T03:07:49;97473.00;;;15.29;53.67
17209;BME280;8720;48.488;9.202;2022-10-31T03:10:31;97469.50;;;15.28;54.10
17209;BME280;8720;48.488;9.202;2022-10-31T03:13:09;97469.56;;;15.27;54.33
17209;BME280;8720;48.488;9.202;2022-10-31T03:15:41;97474.03;;;15.25;54.41
17209;BME280;8720;48.488;9.202;2022-10-31T03:18:16;97460.88;;;15.23;54.54
17209;BME280;8720;48.488;9.202;2022-10-31T03:20:55;97470.59;;;15.23;54.47
17209;BME280;8720;48.488;9.202;2022-10-31T03:23:25;97458.50;;;15.16;54.31
17209;BME280;8720;48.488;9.202;2022-10-31T03:25:54;97464.44;;;15.22;54.50
17209;BME280;8720;48.488;9.202;2022-10-31T03:28:32;97466.16;;;15.23;54.46
17209;BME280;8720;48.488;9.202;2022-10-31T03:31:06;97466.97;;;15.25;54.47
17209;BME280;8720;48.488;9.202;2022-10-31T03:33:39;97470.47;;;15.26;54.40
17209;BME280;8720;48.488;9.202;2022-10-31T03:36:14;97461.66;;;15.27;54.34
17209;BME280;8720;48.488;9.202;2022-10-31T03:38:45;97470.47;;;15.26;54.27
17209;BME280;8720;48.488;9.202;2022-10-31T03:41:21;97462.69;;;15.23;54.37
17209;BME280;8720;48.488;9.202;2022-10-31T03:43:56;97463.47;;;15.25;54.20
17209;BME280;8720;48.488;9.202;2022-10-31T03:46:24;97456.59;;;15.21;54.27
17209;BME280;8720;48.488;9.202;2022-10-31T03:48:55;97463.69;;;15.19;54.25
17209;BME280;8720;48.488;9.202;2022-10-31T03:51:33;97459.38;;;15.16;54.13
17209;BME280;8720;48.488;9.202;2022-10-31T03:54:13;97464.72;;;15.15;54.30
17209;BME280;8720;48.488;9.202;2022-10-31T03:56:51;97450.03;;;15.08;54.02
17209;BME280;8720;48.488;9.202;2022-10-31T03:59:26;97463.09;;;15.11;54.24
17209;BME280;8720;48.488;9.202;2022-10-31T04:02:02;97449.91;;;15.11;54.23
17209;BME280;8720;48.488;9.202;2022-10-31T04:04:32;97453.50;;;15.08;54.13
17209;BME280;8720;48.488;9.202;2022-10-31T04:07:03;97457.13;;;15.06;54.15
17209;BME280;8720;48.488;9.202;2022-10-31T04:09:38;97447.56;;;15.03;54.06
17209;BME280;8720;48.488;9.202;2022-10-31T04:12:10;97459.06;;;15.01;54.13
17209;BME280;8720;48.488;9.202;2022-10-31T04:15:10;97454.78;;;14.97;54.12
17209;BME280;8720;48.488;9.202;2022-10-31T04:17:44;97452.38;;;14.91;53.99
17209;BME280;8720;48.488;9.202;2022-10-31T04:20:15;97462.06;;;14.90;54.08
17209;BME280;8720;48.488;9.202;2022-10-31T04:22:44;97456.13;;;14.84;54.14
17209;BME280;8720;48.488;9.202;2022-10-31T04:25:12;97461.53;;;14.81;54.10
17209;BME280;8720;48.488;9.202;2022-10-31T04:27:39;97458.06;;;14.79;54.12
17209;BME280;8720;48.488;9.202;2022-10-31T04:30:09;97454.66;;;14.75;53.88
17209;BME280;8720;48.488;9.202;2022-10-31T04:32:39;97453.91;;;14.72;54.06
17209;BME280;8720;48.488;9.202;2022-10-31T04:35:07;97452.28;;;14.68;54.08
17209;BME280;8720;48.488;9.202;2022-10-31T04:37:35;97448.03;;;14.64;54.22
17209;BME280;8720;48.488;9.202;2022-10-31T04:40:05;97446.44;;;14.60;54.49
17209;BME280;8720;48.488;9.202;2022-10-31T04:42:51;97450.09;;;14.54;54.33
17209;BME280;8720;48.488;9.202;2022-10-31T04:45:18;97440.50;;;14.53;54.44
17209;BME280;8720;48.488;9.202;2022-10-31T04:47:47;97440.59;;;14.50;54.60
17209;BME280;8720;48.488;9.202;2022-10-31T04:50:15;97438.06;;;14.47;54.18
17209;BME280;8720;48.488;9.202;2022-10-31T04:52:45;97442.38;;;14.49;54.61
17209;BME280;8720;48.488;9.202;2022-10-31T04:55:17;97439.78;;;14.48;54.64
17209;BME280;8720;48.488;9.202;2022-10-31T04:58:03;97436.50;;;14.41;54.73
17209;BME280;8720;48.488;9.202;2022-10-31T05:00:32;97433.81;;;14.43;54.92
17209;BME280;8720;48.488;9.202;2022-10-31T05:03:00;97433.00;;;14.41;54.79
17209;BME280;8720;48.488;9.202;2022-10-31T05:05:31;97434.00;;;14.37;55.13
17209;BME280;8720;48.488;9.202;2022-10-31T05:08:02;97434.09;;;14.34;55.18
17209;BME280;8720;48.488;9.202;2022-10-31T05:10:33;97428.84;;;14.34;55.23
17209;BME280;8720;48.488;9.202;2022-10-31T05:13:03;97424.44;;;14.34;55.14
17209;BME280;8720;48.488;9.202;2022-10-31T05:15:42;97428.03;;;14.32;55.33
17209;BME280;8720;48.488;9.202;2022-10-31T05:18:09;97419.22;;;14.33;55.15
17209;BME280;8720;48.488;9.202;2022-10-31T05:20:52;97421.03;;;14.31;55.16
17209;BME280;8720;48.488;9.202;2022-10-31T05:23:39;97413.19;;;14.29;55.07
17209;BME280;8720;48.488;9.202;2022-10-31T05:26:09;97419.25;;;14.31;55.29
17209;BME280;8720;48.488;9.202;2022-10-31T05:28:36;97414.13;;;14.28;55.20
17209;BME280;8720;48.488;9.202;2022-10-31T05:31:04;97415.81;;;14.29;55.03
17209;BME280;8720;48.488;9.202;2022-10-31T05:33:32;97406.22;;;14.28;55.34
17209;BME280;8720;48.488;9.202;2022-10-31T05:36:17;97411.47;;;14.28;54.99
17209;BME280;8720;48.488;9.202;2022-10-31T05:38:57;97407.13;;;14.27;55.14
17209;BME280;8720;48.488;9.202;2022-10-31T05:41:31;97400.97;;;14.27;55.19
17209;BME280;8720;48.488;9.202;2022-10-31T05:44:04;97399.22;;;14.27;55.17
17209;BME280;8720;48.488;9.202;2022-10-31T05:46:39;97401.88;;;14.26;55.16
17209;BME280;8720;48.488;9.202;2022-10-31T05:49:09;97401.13;;;14.22;55.22
17209;BME280;8720;48.488;9.202;2022-10-31T05:52:11;97401.31;;;14.16;55.35
17209;BME280;8720;48.488;9.202;2022-10-31T05:54:47;97403.19;;;14.13;55.37
17209;BME280;8720;48.488;9.202;2022-10-31T05:57:16;97405.00;;;14.11;55.36
17209;BME280;8720;48.488;9.202;2022-10-31T05:59:43;97410.22;;;14.12;55.43
17209;BME280;8720;48.488;9.202;2022-10-31T06:02:11;97414.56;;;14.13;55.40
17209;BME280;8720;48.488;9.202;2022-10-31T06:05:10;97418.16;;;14.11;55.42
17209;BME280;8720;48.488;9.202;2022-10-31T06:07:38;97419.03;;;14.11;55.29
17209;BME280;8720;48.488;9.202;2022-10-31T06:10:07;97414.59;;;14.12;55.53
17209;BME280;8720;48.488;9.202;2022-10-31T06:12:37;97413.78;;;14.10;55.39
17209;BME280;8720;48.488;9.202;2022-10-31T06:15:23;97419.16;;;14.07;55.31
17209;BME280;8720;48.488;9.202;2022-10-31T06:17:58;97424.41;;;14.07;55.44
17209;BME280;8720;48.488;9.202;2022-10-31T06:20:27;97416.59;;;14.05;55.31
17209;BME280;8720;48.488;9.202;2022-10-31T06:23:00;97424.47;;;14.05;55.34
17209;BME280;8720;48.488;9.202;2022-10-31T06:25:28;97421.84;;;14.05;55.29
17209;BME280;8720;48.488;9.202;2022-10-31T06:27:56;97424.53;;;14.04;55.51
17209;BME280;8720;48.488;9.202;2022-10-31T06:30:29;97420.22;;;14.01;55.35
17209;BME280;8720;48.488;9.202;2022-10-31T06:33:02;97418.44;;;14.02;55.53
17209;BME280;8720;48.488;9.202;2022-10-31T06:35:30;97417.59;;;14.01;55.62
17209;BME280;8720;48.488;9.202;2022-10-31T06:37:59;97421.03;;;14.03;55.54
17209;BME280;8720;48.488;9.202;2022-10-31T06:40:46;97424.56;;;14.02;55.76
17209;BME280;8720;48.488;9.202;2022-10-31T06:43:23;97416.63;;;14.04;55.74
17209;BME280;8720;48.488;9.202;2022-10-31T06:46:04;97422.66;;;14.07;55.80
17209;BME280;8720;48.488;9.202;2022-10-31T06:48:40;97423.38;;;14.12;55.75
17209;BME280;8720;48.488;9.202;2022-10-31T06:51:16;97416.16;;;14.17;55.70
17209;BME280;8720;48.488;9.202;2022-10-31T06:53:44;97407.28;;;14.21;55.66
17209;BME280;8720;48.488;9.202;2022-10-31T06:56:13;97415.97;;;14.25;55.82
17209;BME280;8720;48.488;9.202;2022-10-31T06:58:46;97408.88;;;14.27;55.92
17209;BME280;8720;48.488;9.202;2022-10-31T07:01:15;97409.59;;;14.32;55.79
17209;BME280;8720;48.488;9.202;2022-10-31T07:03:45;97410.28;;;14.38;55.92
17209;BME280;8720;48.488;9.202;2022-10-31T07:06:13;97407.41;;;14.44;56.13
17209;BME280;8720;48.488;9.202;2022-10-31T07:08:40;97404.59;;;14.50;56.13
17209;BME280;8720;48.488;9.202;2022-10-31T07:11:07;97402.56;;;14.58;56.21
17209;BME280;8720;48.488;9.202;2022-10-31T07:13:35;97406.69;;;14.67;56.11
17209;BME280;8720;48.488;9.202;2022-10-31T07:16:08;97401.09;;;14.76;56.10
17209;BME280;8720;48.488;9.202;2022-10-31T07:18:38;97405.97;;;14.87;56.04
17209;BME280;8720;48.488;9.202;2022-10-31T07:21:05;97412.66;;;14.97;56.38
17209;BME280;8720;48.488;9.202;2022-10-31T07:23:33;97413.16;;;15.08;56.15
17209;BME280;8720;48.488;9.202;2022-10-31T07:26:18;97407.53;;;15.17;56.10
17209;BME280;8720;48.488;9.202;2022-10-31T07:28:47;97412.47;;;15.26;56.01
17209;BME280;8720;48.488;9.202;2022-10-31T07:31:18;97414.81;;;15.33;55.96
17209;BME280;8720;48.488;9.202;2022-10-31T07:33:46;97406.69;;;15.39;55.75
17209;BME280;8720;48.488;9.202;2022-10-31T07:36:26;97407.38;;;15.46;55.62
17209;BME280;8720;48.488;9.202;2022-10-31T07:38:57;97412.44;;;15.52;55.66
17209;BME280;8720;48.488;9.202;2022-10-31T07:41:25;97412.16;;;15.58;55.21
17209;BME280;8720;48.488;9.202;2022-10-31T07:43:53;97410.25;;;15.63;55.06
17209;BME280;8720;48.488;9.202;2022-10-31T07:46:42;97411.03;;;15.65;54.97
17209;BME280;8720;48.488;9.202;2022-10-31T07:49:39;97417.94;;;15.69;54.79
17209;BME280;8720;48.488;9.202;2022-10-31T07:52:39;97408.97;;;15.73;54.80
17209;BME280;8720;48.488;9.202;2022-10-31T07:55:42;97413.16;;;15.79;54.93
17209;BME280;8720;48.488;9.202;2022-10-31T07:58:14;97412.00;;;15.86;54.92
17209;BME280;8720;48.488;9.202;2022-10-31T08:00:44;97411.63;;;15.95;55.02
17209;BME280;8720;48.488;9.202;2022-10-31T08:03:18;97410.44;;;16.03;55.15
17209;BME280;8720;48.488;9.202;2022-10-31T08:06:04;97417.06;;;16.13;54.81
17209;BME280;8720;48.488;9.202;2022-10-31T08:08:50;97416.59;;;16.25;54.87
17209;BME280;8720;48.488;9.202;2022-10-31T08:11:18;97408.28;;;16.34;54.91
17209;BME280;8720;48.488;9.202;2022-10-31T08:13:47;97410.44;;;16.47;54.95
17209;BME280;8720;48.488;9.202;2022-10-31T08:16:15;97409.13;;;16.58;54.87
17209;BME280;8720;48.488;9.202;2022-10-31T08:18:52;97411.28;;;16.69;54.66
17209;BME280;8720;48.488;9.202;2022-10-31T08:21:22;97399.41;;;16.79;54.84
17209;BME280;8720;48.488;9.202;2022-10-31T08:23:49;97402.34;;;16.93;54.63
17209;BME280;8720;48.488;9.202;2022-10-31T08:26:19;97400.94;;;17.04;54.41
17209;BME280;8720;48.488;9.202;2022-10-31T08:28:48;97414.56;;;17.15;54.19
17209;BME280;8720;48.488;9.202;2022-10-31T08:31:16;97404.44;;;17.25;54.19
17209;BME280;8720;48.488;9.202;2022-10-31T08:33:44;97400.47;;;17.35;54.00
17209;BME280;8720;48.488;9.202;2022-10-31T08:36:30;97399.25;;;17.42;54.02
17209;BME280;8720;48.488;9.202;2022-10-31T08:39:08;97401.56;;;17.50;53.92
17209;BME280;8720;48.488;9.202;2022-10-31T08:41:36;97397.72;;;17.57;53.73
17209;BME280;8720;48.488;9.202;2022-10-31T08:44:06;97392.94;;;17.65;53.69
17209;BME280;8720;48.488;9.202;2022-10-31T08:46:34;97391.66;;;17.73;53.60
17209;BME280;8720;48.488;9.202;2022-10-31T08:49:02;97393.09;;;17.80;53.33
17209;BME280;8720;48.488;9.202;2022-10-31T08:51:31;97392.72;;;17.88;53.67
17209;BME280;8720;48.488;9.202;2022-10-31T08:53:58;97392.44;;;17.94;53.40
17209;BME280;8720;48.488;9.202;2022-10-31T08:56:54;97385.88;;;18.02;53.06
17209;BME280;8720;48.488;9.202;2022-10-31T08:59:51;97382.06;;;18.08;53.08
17209;BME280;8720;48.488;9.202;2022-10-31T09:02:24;97386.91;;;18.17;53.20
17209;BME280;8720;48.488;9.202;2022-10-31T09:04:57;97397.06;;;18.26;52.63
17209;BME280;8720;48.488;9.202;2022-10-31T09:07:26;97384.38;;;18.33;52.76
17209;BME280;8720;48.488;9.202;2022-10-31T09:09:54;97385.78;;;18.40;52.95
17209;BME280;8720;48.488;9.202;2022-10-31T09:12:22;97392.56;;;18.47;52.35
17209;BME280;8720;48.488;9.202;2022-10-31T09:15:09;97382.56;;;18.52;52.56
17209;BME280;8720;48.488;9.202;2022-10-31T09:17:46;97383.22;;;18.57;52.59
17209;BME280;8720;48.488;9.202;2022-10-31T09:20:27;97373.16;;;18.63;52.54
17209;BME280;8720;48.488;9.202;2022-10-31T09:23:01;97369.19;;;18.72;52.14
17209;BME280;8720;48.488;9.202;2022-10-31T09:25:30;97377.53;;;18.81;52.16
17209;BME280;8720;48.488;9.202;2022-10-31T09:28:19;97380.59;;;18.91;52.11
17209;BME280;8720;48.488;9.202;2022-10-31T09:30:47;97364.38;;;18.97;52.20
17209;BME280;8720;48.488;9.202;2022-10-31T09:33:25;97370.56;;;19.13;52.24
17209;BME280;8720;48.488;9.202;2022-10-31T09:36:12;97362.94;;;19.24;52.09
17209;BME280;8720;48.488;9.202;2022-10-31T09:38:42;97355.19;;;19.37;52.03
17209;BME280;8720;48.488;9.202;2022-10-31T09:41:22;97357.19;;;19.49;51.81
17209;BME280;8720;48.488;9.202;2022-10-31T09:44:10;97360.81;;;19.63;51.75
17209;BME280;8720;48.488;9.202;2022-10-31T09:46:57;97349.44;;;19.77;51.34
17209;BME280;8720;48.488;9.202;2022-10-31T09:49:57;97359.47;;;19.87;51.35
17209;BME280;8720;48.488;9.202;2022-10-31T09:52:32;97352.63;;;19.99;50.85
17209;BME280;8720;48.488;9.202;2022-10-31T09:55:14;97356.41;;;20.11;51.07
17209;BME280;8720;48.488;9.202;2022-10-31T09:57:44;97352.13;;;20.24;51.17
17209;BME280;8720;48.488;9.202;2022-10-31T10:00:17;97352.34;;;20.35;50.77
17209;BME280;8720;48.488;9.202;2022-10-31T10:02:50;97350.69;;;20.48;50.40
17209;BME280;8720;48.488;9.202;2022-10-31T10:05:24;97344.69;;;20.60;50.06
17209;BME280;8720;48.488;9.202;2022-10-31T10:08:16;97351.84;;;20.73;50.58
17209;BME280;8720;48.488;9.202;2022-10-31T10:11:42;97347.69;;;20.83;50.25
17209;BME280;8720;48.488;9.202;2022-10-31T10:14:39;97342.69;;;20.93;50.30
17209;BME280;8720;48.488;9.202;2022-10-31T10:17:21;97344.91;;;21.01;49.82
17209;BME280;8720;48.488;9.202;2022-10-31T10:20:23;97338.69;;;21.00;50.02
17209;BME280;8720;48.488;9.202;2022-10-31T10:23:08;97343.31;;;21.12;49.82
17209;BME280;8720;48.488;9.202;2022-10-31T10:25:40;97339.34;;;21.19;49.60
17209;BME280;8720;48.488;9.202;2022-10-31T10:28:21;97328.31;;;21.25;49.46
17209;BME280;8720;48.488;9.202;2022-10-31T10:30:58;97336.91;;;21.30;49.29
17209;BME280;8720;48.488;9.202;2022-10-31T10:33:32;97330.34;;;21.36;48.96
17209;BME280;8720;48.488;9.202;2022-10-31T10:36:05;97331.00;;;21.39;49.08
17209;BME280;8720;48.488;9.202;2022-10-31T10:38:41;97327.00;;;21.46;49.00
17209;BME280;8720;48.488;9.202;2022-10-31T10:41:18;97322.16;;;21.53;49.06
17209;BME280;8720;48.488;9.202;2022-10-31T10:43:50;97327.84;;;21.61;48.93
17209;BME280;8720;48.488;9.202;2022-10-31T10:46:21;97325.56;;;21.69;48.66
17209;BME280;8720;48.488;9.202;2022-10-31T10:49:16;97313.47;;;21.78;48.79
17209;BME280;8720;48.488;9.202;2022-10-31T10:51:49;97317.28;;;21.88;48.23
17209;BME280;8720;48.488;9.202;2022-10-31T10:54:54;97303.56;;;21.94;48.73
17209;BME280;8720;48.488;9.202;2022-10-31T10:57:53;97302.88;;;22.04;48.32
17209;BME280;8720;48.488;9.202;2022-10-31T11:00:29;97292.38;;;22.15;48.04
17209;BME280;8720;48.488;9.202;2022-10-31T11:02:59;97286.72;;;22.20;47.99
17209;BME280;8720;48.488;9.202;2022-10-31T11:05:35;97283.78;;;22.37;47.80
17209;BME280;8720;48.488;9.202;2022-10-31T11:08:04;97284.91;;;22.47;47.55
17209;BME280;8720;48.488;9.202;2022-10-31T11:10:32;97276.22;;;22.58;46.87
17209;BME280;8720;48.488;9.202;2022-10-31T11:13:21;97271.13;;;22.67;47.61
17209;BME280;8720;48.488;9.202;2022-10-31T11:15:59;97272.41;;;22.74;46.87
17209;BME280;8720;48.488;9.202;2022-10-31T11:18:30;97267.69;;;22.78;46.67
17209;BME280;8720;48.488;9.202;2022-10-31T11:21:00;97270.06;;;22.82;47.01
17209;BME280;8720;48.488;9.202;2022-10-31T11:23:29;97260.88;;;22.86;46.42
17209;BME280;8720;48.488;9.202;2022-10-31T11:26:02;97257.91;;;22.91;46.40
17209;BME280;8720;48.488;9.202;2022-10-31T11:28:32;97257.69;;;22.94;46.13
17209;BME280;8720;48.488;9.202;2022-10-31T11:31:08;97245.72;;;22.99;46.64
17209;BME280;8720;48.488;9.202;2022-10-31T11:33:46;97243.69;;;23.03;46.45
17209;BME280;8720;48.488;9.202;2022-10-31T11:36:21;97237.41;;;23.04;46.08
17209;BME280;8720;48.488;9.202;2022-10-31T11:38:51;97241.34;;;23.11;45.74
17209;BME280;8720;48.488;9.202;2022-10-31T11:41:26;97233.03;;;23.15;45.70
17209;BME280;8720;48.488;9.202;2022-10-31T11:43:57;97228.94;;;23.22;45.80
17209;BME280;8720;48.488;9.202;2022-10-31T11:46:34;97229.50;;;23.27;46.11
17209;BME280;8720;48.488;9.202;2022-10-31T11:49:03;97227.50;;;23.31;45.97
17209;BME280;8720;48.488;9.202;2022-10-31T11:51:33;97217.44;;;23.34;45.66
17209;BME280;8720;48.488;9.202;2022-10-31T11:54:04;97223.28;;;23.39;45.18
17209;BME280;8720;48.488;9.202;2022-10-31T11:56:39;97222.84;;;23.45;45.25
17209;BME280;8720;48.488;9.202;2022-10-31T11:59:21;97209.19;;;23.50;45.56
17209;BME280;8720;48.488;9.202;2022-10-31T12:01:53;97219.44;;;23.56;45.29
17209;BME280;8720;48.488;9.202;2022-10-31T12:04:40;97215.34;;;23.63;45.32
17209;BME280;8720;48.488;9.202;2022-10-31T12:07:08;97211.47;;;23.67;45.36
17209;BME280;8720;48.488;9.202;2022-10-31T12:09:37;97214.03;;;23.69;44.90
17209;BME280;8720;48.488;9.202;2022-10-31T12:15:31;97208.69;;;23.69;45.31
17209;BME280;8720;48.488;9.202;2022-10-31T12:18:33;97203.34;;;23.69;45.08
17209;BME280;8720;48.488;9.202;2022-10-31T12:21:19;97199.59;;;23.71;45.06
17209;BME280;8720;48.488;9.202;2022-10-31T12:24:05;97201.22;;;23.74;44.95
17209;BME280;8720;48.488;9.202;2022-10-31T12:26:48;97195.63;;;23.77;45.30
17209;BME280;8720;48.488;9.202;2022-10-31T12:29:42;97188.34;;;23.79;45.09
17209;BME280;8720;48.488;9.202;2022-10-31T12:32:38;97182.88;;;23.80;45.03
17209;BME280;8720;48.488;9.202;2022-10-31T12:35:44;97176.81;;;23.78;45.54
17209;BME280;8720;48.488;9.202;2022-10-31T12:38:33;97176.69;;;23.80;45.25
17209;BME280;8720;48.488;9.202;2022-10-31T12:41:23;97176.69;;;23.80;44.96
17209;BME280;8720;48.488;9.202;2022-10-31T12:44:06;97158.34;;;23.75;44.97
17209;BME280;8720;48.488;9.202;2022-10-31T12:47:00;97161.63;;;23.79;44.99
17209;BME280;8720;48.488;9.202;2022-10-31T12:49:48;97153.63;;;23.79;44.76
17209;BME280;8720;48.488;9.202;2022-10-31T12:52:45;97148.28;;;23.79;44.74
17209;BME280;8720;48.488;9.202;2022-10-31T12:55:37;97149.75;;;23.83;45.24
17209;BME280;8720;48.488;9.202;2022-10-31T12:58:10;97152.06;;;23.87;45.12
17209;BME280;8720;48.488;9.202;2022-10-31T13:00:46;97145.03;;;23.86;44.55
17209;BME280;8720;48.488;9.202;2022-10-31T13:03:26;97136.13;;;23.86;44.63
17209;BME280;8720;48.488;9.202;2022-10-31T13:06:01;97136.88;;;23.88;44.58
17209;BME280;8720;48.488;9.202;2022-10-31T13:08:37;97139.56;;;23.88;44.66
17209;BME280;8720;48.488;9.202;2022-10-31T13:11:11;97128.00;;;23.87;44.32
17209;BME280;8720;48.488;9.202;2022-10-31T13:13:47;97126.19;;;23.88;44.35
17209;BME280;8720;48.488;9.202;2022-10-31T13:16:22;97124.38;;;23.88;44.80
17209;BME280;8720;48.488;9.202;2022-10-31T13:18:57;97129.59;;;23.90;44.40
17209;BME280;8720;48.488;9.202;2022-10-31T13:21:38;97128.66;;;23.91;45.26
17209;BME280;8720;48.488;9.202;2022-10-31T13:24:13;97130.13;;;23.95;45.05
17209;BME280;8720;48.488;9.202;2022-10-31T13:26:50;97121.88;;;23.98;45.03
17209;BME280;8720;48.488;9.202;2022-10-31T13:29:26;97116.53;;;23.98;44.57
17209;BME280;8720;48.488;9.202;2022-10-31T13:31:55;97120.06;;;23.98;45.20
17209;BME280;8720;48.488;9.202;2022-10-31T13:34:29;97109.47;;;23.97;44.64
17209;BME280;8720;48.488;9.202;2022-10-31T13:37:17;97106.81;;;23.97;44.42
17209;BME280;8720;48.488;9.202;2022-10-31T13:40:12;97097.06;;;23.96;44.76
17209;BME280;8720;48.488;9.202;2022-10-31T13:43:05;97088.09;;;23.97;45.04
17209;BME280;8720;48.488;9.202;2022-10-31T13:45:34;97093.19;;;24.00;44.94
17209;BME280;8720;48.488;9.202;2022-10-31T13:48:18;97094.88;;;24.01;44.40
17209;BME280;8720;48.488;9.202;2022-10-31T13:50:58;97081.47;;;24.02;44.66
17209;BME280;8720;48.488;9.202;2022-10-31T13:53:38;97082.19;;;24.04;44.30
17209;BME280;8720;48.488;9.202;2022-10-31T13:56:20;97075.00;;;24.05;44.71
17209;BME280;8720;48.488;9.202;2022-10-31T13:59:20;97084.13;;;24.02;44.68
17209;BME280;8720;48.488;9.202;2022-10-31T14:01:55;97075.25;;;24.02;44.23